Flight Track Log - Related Links

Times and Time Zones

All times are in EST time to prevent confusion due to time zone crossing. See the N589H flight status page for this flight to view local times or setup timezone preferences in your user account.

Time Position Orientation Groundspeed Altitude Reporting Facility
EST Latitude Longitude Course Direction KTS MPH feet Rate Location/Type
Thu 01:23:31 PM 27.9333 -82.6833 344° North 156 180 400  Level Tampa TRACON
Thu 01:24:49 PM 27.9833 -82.7000 344° North 197 227 1,700 1,455 Climbing Tampa TRACON
Thu 01:25:43 PM 28.0333 -82.7167 344° North 207 238 3,600 1,873 Climbing Tampa TRACON
Thu 01:27:58 PM 28.1519 -82.7303 354° North 184 212 7,600 1,754 Climbing Jacksonville Center
Thu 01:28:58 PM 28.2125 -82.7278 North 195 224 9,300 1,500 Climbing Jacksonville Center
Thu 01:29:58 PM 28.2772 -82.7275 360° North 210 242 10,600 1,400 Climbing Jacksonville Center
Thu 01:30:58 PM 28.3439 -82.7322 356° North 223 257 12,100 1,500 Climbing Jacksonville Center
Thu 01:31:58 PM 28.4106 -82.7392 355° North 234 269 13,600 1,500 Climbing Jacksonville Center
Thu 01:32:58 PM 28.4794 -82.7439 357° North 239 275 15,100 1,500 Climbing Jacksonville Center
Thu 01:33:58 PM 28.5483 -82.7508 355° North 239 275 16,600 1,400 Climbing Jacksonville Center
Thu 01:34:58 PM 28.6153 -82.7578 355° North 239 275 17,900 1,400 Climbing Jacksonville Center
Thu 01:35:58 PM 28.6842 -82.7647 355° North 239 275 19,400 1,450 Climbing Jacksonville Center
Thu 01:36:58 PM 28.7467 -82.7672 358° North 239 275 20,800 1,300 Climbing Jacksonville Center
Thu 01:37:58 PM 28.8178 -82.7717 357° North 244 281 22,000 800 Climbing Jacksonville Center
Thu 01:38:58 PM 28.8992 -82.7811 354° North 265 305 22,400 650 Climbing Jacksonville Center
Thu 01:39:58 PM 28.9825 -82.7858 357° North 280 322 23,300 950 Climbing Jacksonville Center
Thu 01:40:58 PM 29.0661 -82.7953 354° North 293 337 24,300 1,050 Climbing Jacksonville Center
Thu 01:41:58 PM 29.1517 -82.8022 356° North 298 343 25,400 1,050 Climbing Jacksonville Center
Thu 01:42:58 PM 29.2394 -82.8092 356° North 303 349 26,400 1,000 Climbing Jacksonville Center
Thu 01:43:58 PM 29.3269 -82.8164 356° North 309 356 27,400 1,050 Climbing Jacksonville Center
Thu 01:44:58 PM 29.4125 -82.8233 356° North 309 356 28,500 1,050 Climbing Jacksonville Center
Thu 01:45:58 PM 29.5003 -82.8331 354° North 309 356 29,500 750 Climbing Jacksonville Center
Thu 01:46:58 PM 29.5881 -82.8400 356° North 315 362 30,000 250 Climbing Jacksonville Center
Thu 01:47:58 PM 29.6819 -82.8494 355° North 315 362 30,000  Level Jacksonville Center
Thu 01:48:58 PM 29.7800 -82.8542 358° North 331 381 30,000  Level Jacksonville Center
Thu 01:49:58 PM 29.8803 -82.8639 355° North 348 400 30,000  Level Jacksonville Center
Thu 01:50:58 PM 29.9847 -82.8733 356° North 362 417 30,000  Level Jacksonville Center
Thu 01:51:58 PM 30.0994 -82.8806 357° North 372 428 30,000  Level Jacksonville Center
Thu 01:52:58 PM 30.2017 -82.8903 355° North 372 428 30,000  Level Jacksonville Center
Thu 01:53:58 PM 30.3061 -82.9022 354° North 372 428 30,000  Level Jacksonville Center
Thu 01:54:58 PM 30.4106 -82.9094 357° North 367 422 30,000  Level Jacksonville Center
Thu 01:55:58 PM 30.5150 -82.9192 355° North 367 422 30,000  Level Jacksonville Center
Thu 01:56:58 PM 30.6172 -82.9289 355° North 367 422 30,000  Level Jacksonville Center
Thu 01:57:58 PM 30.7217 -82.9386 355° North 367 422 30,000  Level Jacksonville Center
Thu 01:58:58 PM 30.8261 -82.9483 355° North 367 422 30,000  Level Jacksonville Center
Thu 01:59:58 PM 30.9283 -82.9581 355° North 367 422 30,000  Level Jacksonville Center
Thu 02:00:58 PM 31.0306 -82.9678 355° North 367 422 30,000  Level Jacksonville Center
Thu 02:01:58 PM 31.1350 -82.9775 355° North 367 422 30,000  Level Jacksonville Center
Thu 02:02:58 PM 31.2394 -82.9850 356° North 367 422 30,000  Level Jacksonville Center
Thu 02:06:39 PM 31.6150 -83.0194 356° North 369 425 30,000  Level Atlanta Center
Thu 02:07:39 PM 31.7217 -83.0306 355° North 369 425 30,000  Level Atlanta Center
Thu 02:08:39 PM 31.8261 -83.0392 356° North 369 425 30,000  Level Atlanta Center
Thu 02:09:39 PM 31.9325 -83.0503 355° North 369 425 30,000  Level Atlanta Center
Thu 02:10:39 PM 32.0392 -83.0589 356° North 369 425 30,000  Level Atlanta Center
Thu 02:11:39 PM 32.1436 -83.0700 355° North 369 425 30,000  Level Atlanta Center
Thu 02:12:39 PM 32.2500 -83.0786 356° North 369 425 30,000  Level Atlanta Center
Thu 02:13:39 PM 32.3544 -83.0872 356° North 374 430 30,000  Level Atlanta Center
Thu 02:14:39 PM 32.4611 -83.0983 355° North 374 430 30,000  Level Atlanta Center
Thu 02:15:39 PM 32.5675 -83.1097 355° North 374 430 30,000  Level Atlanta Center
Thu 02:16:39 PM 32.6761 -83.1183 356° North 374 430 30,000  Level Atlanta Center
Thu 02:17:39 PM 32.7806 -83.1272 356° North 374 430 30,000  Level Atlanta Center
Thu 02:18:39 PM 32.8850 -83.1361 356° North 374 430 30,000  Level Atlanta Center
Thu 02:19:39 PM 32.9936 -83.1447 356° North 379 436 30,000  Level Atlanta Center
Thu 02:20:39 PM 33.1003 -83.1586 354° North 386 444 30,000  Level Atlanta Center
Thu 02:21:39 PM 33.2047 -83.1700 355° North 381 438 30,000  Level Atlanta Center
Thu 02:22:39 PM 33.3111 -83.1789 356° North 392 451 30,000  Level Atlanta Center
Thu 02:23:39 PM 33.4197 -83.1875 356° North 387 445 30,000  Level Atlanta Center
Thu 02:24:39 PM 33.5242 -83.1967 356° North 382 440 30,000  Level Atlanta Center
Thu 02:25:39 PM 33.6286 -83.2056 356° North 382 440 30,000  Level Atlanta Center
Thu 02:26:39 PM 33.7372 -83.2144 356° North 382 440 30,000  Level Atlanta Center
Thu 02:27:39 PM 33.8500 -83.2283 354° North 382 440 30,000  Level Atlanta Center
Thu 02:28:39 PM 33.9606 -83.2372 356° North 389 448 30,000  Level Atlanta Center
Thu 02:29:39 PM 34.0672 -83.2464 356° North 389 448 30,000  Level Atlanta Center
Thu 02:30:39 PM 34.1736 -83.2581 355° North 389 448 30,000  Level Atlanta Center
Thu 02:31:39 PM 34.2803 -83.2644 357° North 382 440 30,000  Level Atlanta Center
Thu 02:32:39 PM 34.3867 -83.2761 355° North 382 440 30,000  Level Atlanta Center
Thu 02:33:39 PM 34.4933 -83.2878 355° North 387 445 30,000  Level Atlanta Center
Thu 02:34:39 PM 34.6017 -83.2969 356° North 387 445 30,000  Level Atlanta Center
Thu 02:35:39 PM 34.7061 -83.3111 354° North 387 445 30,000  Level Atlanta Center
Thu 02:36:39 PM 34.8169 -83.3178 357° North 387 445 30,000  Level Atlanta Center
Thu 02:37:39 PM 34.9233 -83.3294 355° North 387 445 30,000  Level Atlanta Center
Thu 02:38:39 PM 35.0319 -83.3411 355° North 387 445 30,000  Level Atlanta Center
Thu 02:39:39 PM 35.1406 -83.3481 357° North 387 445 30,000  Level Atlanta Center
Thu 02:40:39 PM 35.2492 -83.3647 353° North 387 445 30,000  Level Atlanta Center
Thu 02:41:39 PM 35.3556 -83.3742 356° North 387 445 30,000  Level Atlanta Center
Thu 02:42:39 PM 35.4642 -83.3833 356° North 387 445 30,000  Level Atlanta Center
Thu 02:43:39 PM 35.5706 -83.3953 355° North 387 445 30,000  Level Atlanta Center
Thu 02:44:39 PM 35.6750 -83.4047 356° North 387 445 30,000  Level Atlanta Center
Thu 02:45:39 PM 35.7814 -83.4167 355° North 387 445 30,000  Level Atlanta Center
Thu 02:46:39 PM 35.8900 -83.4261 356° North 387 445 30,000  Level Atlanta Center
Thu 02:47:39 PM 35.9964 -83.4383 355° North 387 445 30,000  Level Atlanta Center
Thu 02:48:39 PM 36.1028 -83.4450 357° North 387 445 30,000  Level Atlanta Center
Thu 02:50:06 PM 36.2444 -83.4606 355° North 379 436 30,000  Level Indianapolis Center
Thu 02:51:08 PM 36.3489 -83.4703 356° North 376 433 30,000  Level Indianapolis Center
Thu 02:52:10 PM 36.4719 -83.4822 356° North 377 434 30,000  Level Indianapolis Center
Thu 02:53:12 PM 36.5781 -83.4919 356° North 379 436 30,000  Level Indianapolis Center
Thu 02:54:13 PM 36.6847 -83.5022 356° North 380 437 30,000  Level Indianapolis Center
Thu 02:55:15 PM 36.7903 -83.5133 355° North 377 434 30,000  Level Indianapolis Center
Thu 02:56:17 PM 36.8953 -83.5244 355° North 375 432 30,000 -48 Level Indianapolis Center
Thu 02:57:19 PM 37.0003 -83.5342 356° North 375 432 29,900 -802 Descending Indianapolis Center
Thu 03:13:52 PM 38.6711 -83.7089 357° North 327 376 15,900 -887 Descending Indianapolis Center
Thu 03:14:00 PM 38.5456 -83.6875 356° North  Level FlightAware
Thu 03:14:54 PM 38.7789 -83.7203 355° North 321 369 14,300  Level Indianapolis Center
Thu 03:15:00 PM 38.6383 -83.6959 356° North  Level FlightAware
Thu 03:15:56 PM 38.8628 -83.7300 355° North 306 352 12,900  Level Indianapolis Center
Thu 03:16:00 PM 38.7310 -83.7016 355° North  Level FlightAware
Thu 03:16:58 PM 38.9436 -83.7389 355° North 292 336 11,400  Level Indianapolis Center
Thu 03:17:00 PM 38.8236 -83.7119 355° North  Level FlightAware
Thu 03:18:00 PM 38.9163 -83.7205 357° North  Level FlightAware
Thu 03:18:00 PM 39.0228 -83.7469 355° North 287 330 10,000  Level Indianapolis Center
Thu 03:18:13 PM 39.0508 -83.7519 352° North 284 327 9,500 -1,680 Descending Indianapolis Center
Thu 03:18:25 PM 39.0631 -83.7539 353° North 285 328 9,300 -1,224 Descending Indianapolis Center
Thu 03:19:00 PM 39.0091 -83.7276 357° North  Level FlightAware
Thu 03:19:02 PM 39.1036 -83.7561 358° North 290 334 8,500  Level Indianapolis Center
Thu 03:19:26 PM 39.1442 -83.7625 353° North 297 342 7,800 -1,355 Descending Indianapolis Center
Thu 03:20:04 PM 39.1856 -83.7647 358° North 294 338 7,100 -1,475 Descending Indianapolis Center
Thu 03:20:27 PM 39.2286 -83.7606 North 288 331 6,300 -1,065 Descending Indianapolis Center
Thu 03:21:06 PM 39.2764 -83.7350 22° Northeast 290 334 6,000 -500 Descending Indianapolis Center
Thu 03:21:27 PM 39.3025 -83.7164 29° Northeast 295 339 5,800 -1,065 Descending Indianapolis Center
Thu 03:22:08 PM 39.3483 -83.6867 27° Northeast 293 337 4,900 -1,433 Descending Indianapolis Center
Thu 03:22:34 PM 39.3783 -83.6750 17° North 269 310 4,200 -1,452 Descending Indianapolis Center
Thu 03:23:10 PM 39.4164 -83.6542 23° Northeast 277 319 3,400 -1,180 Descending Indianapolis Center
Thu 03:23:35 PM 39.4511 -83.6414 16° North 261 300 3,000 -387 Descending Indianapolis Center
Thu 03:24:12 PM 39.4844 -83.6258 20° North 267 307 3,000 -60 Level Indianapolis Center
Thu 03:25:15 PM 39.5397 -83.6386 350° North 240 276 2,900 -48 Descending Indianapolis Center
Thu 03:26:17 PM 39.5381 -83.6911 268° West 201 231 2,900 -145 Level Indianapolis Center
Thu 03:27:19 PM 39.5008 -83.7297 219° Southwest 161 185 2,600 -320 Descending Indianapolis Center
Thu 03:27:32 PM 39.4942 -83.7353 213° Southwest 115 132 2,500 -800 Descending Indianapolis Center
Thu 03:28:34 PM 39.4658 -83.7658 220° Southwest 126 145 1,600 -595 Descending Indianapolis Center
Thu 03:29:23 PM 39.4417 -83.7872 214° Southwest 133 153 1,400 -245 Descending Indianapolis Center

Login

Don't have an account? Register now (free) for customized features, flight alerts, and more!